createdAt,value
2018-12-05T00:00:40.300Z,4.81
2018-12-05T00:03:07.060Z,4.82
2018-12-05T00:05:33.848Z,4.76
2018-12-05T00:08:00.626Z,4.86
2018-12-05T00:10:27.405Z,4.84
2018-12-05T00:12:54.172Z,4.88
2018-12-05T00:15:20.949Z,5.17
2018-12-05T00:17:47.709Z,4.98
2018-12-05T00:20:14.505Z,4.94
2018-12-05T00:22:41.265Z,5.15
2018-12-05T00:25:08.065Z,4.96
2018-12-05T00:27:34.833Z,4.89
2018-12-05T00:30:01.599Z,4.94
2018-12-05T00:32:28.381Z,4.85
2018-12-05T00:34:55.144Z,4.80
2018-12-05T00:37:21.941Z,4.65
2018-12-05T00:39:48.710Z,4.61
2018-12-05T00:42:15.512Z,4.71
2018-12-05T00:44:42.289Z,4.64
2018-12-05T00:47:09.116Z,4.61
2018-12-05T00:49:35.871Z,4.50
2018-12-05T00:52:02.648Z,4.73
2018-12-05T00:54:29.413Z,4.65
2018-12-05T00:56:56.193Z,4.50
2018-12-05T00:59:22.965Z,4.30
2018-12-05T01:01:49.753Z,4.24
2018-12-05T01:04:16.528Z,4.22
2018-12-05T01:06:43.313Z,4.31
2018-12-05T01:09:12.254Z,4.27
2018-12-05T01:11:39.336Z,4.28
2018-12-05T01:14:06.103Z,4.33
2018-12-05T01:16:32.880Z,4.37
2018-12-05T01:18:59.640Z,4.36
2018-12-05T01:21:26.450Z,4.30
2018-12-05T01:23:53.213Z,4.30
2018-12-05T01:26:19.992Z,4.38
2018-12-05T01:28:46.750Z,4.36
2018-12-05T01:31:13.573Z,4.29
2018-12-05T01:33:40.331Z,4.21
2018-12-05T01:36:07.116Z,4.18
2018-12-05T01:38:33.896Z,4.13
2018-12-05T01:41:00.661Z,4.12
2018-12-05T01:43:46.310Z,4.09
2018-12-05T01:46:13.096Z,4.03
2018-12-05T01:48:39.864Z,4.04
2018-12-05T01:51:06.640Z,4.14
2018-12-05T01:53:33.425Z,4.23
2018-12-05T01:56:00.196Z,4.08
2018-12-05T01:58:26.989Z,4.04
2018-12-05T02:00:53.737Z,4.06
2018-12-05T02:03:20.529Z,4.04
2018-12-05T02:05:47.289Z,3.90
2018-12-05T02:08:14.073Z,3.90
2018-12-05T02:10:40.845Z,3.82
2018-12-05T02:13:07.628Z,3.94
2018-12-05T02:15:34.388Z,3.97
2018-12-05T02:18:01.165Z,3.93
2018-12-05T02:20:27.942Z,3.92
2018-12-05T02:22:54.717Z,3.91
2018-12-05T02:25:21.563Z,3.82
2018-12-05T02:27:48.256Z,3.84
2018-12-05T02:30:15.010Z,3.74
2018-12-05T02:32:41.781Z,3.75
2018-12-05T02:35:08.545Z,3.74
2018-12-05T02:37:35.328Z,3.67
2018-12-05T02:40:02.132Z,3.57
2018-12-05T02:42:28.913Z,3.55
2018-12-05T02:44:57.385Z,3.55
2018-12-05T02:47:22.448Z,3.57
2018-12-05T02:49:49.209Z,3.65
2018-12-05T02:52:15.982Z,3.67
2018-12-05T02:54:42.731Z,3.67
2018-12-05T02:57:09.504Z,3.74
2018-12-05T02:59:36.260Z,3.89
2018-12-05T03:02:03.019Z,3.92
2018-12-05T03:04:29.796Z,3.93
2018-12-05T03:06:56.565Z,3.92
2018-12-05T03:09:23.356Z,3.90
2018-12-05T03:11:50.136Z,3.99
2018-12-05T03:14:16.913Z,4.09
2018-12-05T03:16:43.709Z,4.02
2018-12-05T03:19:10.474Z,4.03
2018-12-05T03:21:37.248Z,4.10
2018-12-05T03:24:04.096Z,4.25
2018-12-05T03:26:30.849Z,4.49
2018-12-05T03:28:57.633Z,4.50
2018-12-05T03:31:24.402Z,4.58
2018-12-05T03:33:51.170Z,4.53
2018-12-05T03:36:18.001Z,4.45
2018-12-05T03:38:44.800Z,4.44
2018-12-05T03:41:11.557Z,4.50
2018-12-05T03:43:38.341Z,4.44
2018-12-05T03:46:05.104Z,4.39
2018-12-05T03:48:31.877Z,4.34
2018-12-05T03:50:58.665Z,4.46
2018-12-05T03:53:25.448Z,4.66
2018-12-05T03:55:52.220Z,4.76
2018-12-05T03:58:19.013Z,4.85
2018-12-05T04:00:45.780Z,4.91
2018-12-05T04:03:12.603Z,4.72
2018-12-05T04:05:39.363Z,4.57
2018-12-05T04:08:06.141Z,4.61
2018-12-05T04:10:33.095Z,4.47
2018-12-05T04:13:00.263Z,4.41
2018-12-05T04:15:27.033Z,4.39
2018-12-05T04:17:53.805Z,4.61
2018-12-05T04:20:20.584Z,4.45
2018-12-05T04:22:47.357Z,4.42
2018-12-05T04:25:14.122Z,4.50
2018-12-05T04:27:40.885Z,4.44
2018-12-05T04:30:07.669Z,4.35
2018-12-05T04:32:34.425Z,4.67
2018-12-05T04:35:01.189Z,4.53
2018-12-05T04:37:27.958Z,4.55
2018-12-05T04:39:54.757Z,4.56
2018-12-05T04:42:21.516Z,4.81
2018-12-05T04:44:48.307Z,4.61
2018-12-05T04:47:15.085Z,4.34
2018-12-05T04:49:41.860Z,4.21
2018-12-05T04:52:08.619Z,4.10
2018-12-05T04:54:35.382Z,4.16
2018-12-05T04:57:02.165Z,4.04
2018-12-05T04:59:28.945Z,3.94
2018-12-05T05:01:55.712Z,3.96
2018-12-05T05:04:22.502Z,3.94
2018-12-05T05:06:49.263Z,3.94
2018-12-05T05:09:16.037Z,3.82
2018-12-05T05:11:42.827Z,4.02
2018-12-05T05:14:09.692Z,4.17
2018-12-05T05:16:36.440Z,4.27
2018-12-05T05:19:03.225Z,4.19
2018-12-05T05:21:30.105Z,4.24
2018-12-05T05:23:56.889Z,4.16
2018-12-05T05:26:23.651Z,4.09
2018-12-05T05:28:50.402Z,4.08
2018-12-05T05:31:17.173Z,4.12
2018-12-05T05:33:43.933Z,4.13
2018-12-05T05:36:10.717Z,4.10
2018-12-05T05:38:37.493Z,4.12
2018-12-05T05:41:04.276Z,4.20
2018-12-05T05:43:31.040Z,4.20
2018-12-05T05:45:57.820Z,4.01
2018-12-05T05:48:24.570Z,4.03
2018-12-05T05:50:51.351Z,4.04
2018-12-05T05:53:18.117Z,4.00
2018-12-05T05:55:44.905Z,4.02
2018-12-05T05:58:11.680Z,4.23
2018-12-05T06:00:38.497Z,4.32
2018-12-05T06:03:05.258Z,4.16
2018-12-05T06:05:32.052Z,4.11
2018-12-05T06:07:58.869Z,4.14
2018-12-05T06:10:25.661Z,4.21
2018-12-05T06:12:52.418Z,4.21
2018-12-05T06:15:19.201Z,4.16
2018-12-05T06:17:45.972Z,4.22
2018-12-05T06:20:12.762Z,4.20
2018-12-05T06:22:39.509Z,4.17
2018-12-05T06:25:06.277Z,4.24
2018-12-05T06:27:33.118Z,4.29
2018-12-05T06:29:59.877Z,4.31
2018-12-05T06:32:26.637Z,4.38
2018-12-05T06:34:53.429Z,4.26
2018-12-05T06:37:20.193Z,4.24
2018-12-05T06:39:46.988Z,4.27
2018-12-05T06:42:13.736Z,4.32
2018-12-05T06:44:40.529Z,4.29
2018-12-05T06:47:07.293Z,4.32
2018-12-05T06:49:34.092Z,4.37
2018-12-05T06:52:00.851Z,4.31
2018-12-05T06:54:27.610Z,4.31
2018-12-05T06:56:54.383Z,4.30
2018-12-05T06:59:21.157Z,4.47
2018-12-05T07:01:47.936Z,4.54
2018-12-05T07:04:14.716Z,4.51
2018-12-05T07:06:41.489Z,4.46
2018-12-05T07:09:08.481Z,4.43
2018-12-05T07:11:35.250Z,4.50
2018-12-05T07:14:02.041Z,4.49
2018-12-05T07:16:28.861Z,4.70
2018-12-05T07:18:55.620Z,4.57
2018-12-05T07:21:22.489Z,4.33
2018-12-05T07:23:49.265Z,4.45
2018-12-05T07:26:16.052Z,4.53
2018-12-05T07:28:42.824Z,4.41
2018-12-05T07:31:09.601Z,4.60
2018-12-05T07:33:36.372Z,4.88
2018-12-05T07:36:03.164Z,4.76
2018-12-05T07:38:29.929Z,4.77
2018-12-05T07:40:56.728Z,4.71
2018-12-05T07:43:23.520Z,4.67
2018-12-05T07:45:50.352Z,4.68
2018-12-05T07:48:17.128Z,4.58
2018-12-05T07:50:43.917Z,4.65
2018-12-05T07:53:10.684Z,4.56
2018-12-05T07:55:37.463Z,4.54
2018-12-05T07:58:04.228Z,4.40
2018-12-05T08:00:31.008Z,4.36
2018-12-05T08:02:57.781Z,4.40
2018-12-05T08:05:24.560Z,4.42
2018-12-05T08:07:51.312Z,4.40
2018-12-05T08:10:18.094Z,4.42
2018-12-05T08:12:44.884Z,4.57
2018-12-05T08:15:11.649Z,4.87
2018-12-05T08:17:38.417Z,4.66
2018-12-05T08:20:05.220Z,4.54
2018-12-05T08:22:31.997Z,4.58
2018-12-05T08:24:58.753Z,4.68
2018-12-05T08:27:25.530Z,4.81
2018-12-05T08:29:52.297Z,4.88
2018-12-05T08:32:19.093Z,4.82
2018-12-05T08:34:45.838Z,4.88
2018-12-05T08:37:12.624Z,4.94
2018-12-05T08:39:39.389Z,5.12
2018-12-05T08:42:06.181Z,5.01
2018-12-05T08:44:32.953Z,5.08
2018-12-05T08:46:59.745Z,5.16
2018-12-05T08:49:26.546Z,5.29
2018-12-05T08:51:53.327Z,5.53
2018-12-05T08:54:21.293Z,5.43
2018-12-05T08:56:46.876Z,5.49
2018-12-05T08:59:13.658Z,5.53
2018-12-05T09:01:40.456Z,5.56
2018-12-05T09:04:07.225Z,5.51
2018-12-05T09:06:34.068Z,5.62
2018-12-05T09:09:00.821Z,5.50
2018-12-05T09:11:27.603Z,5.81
2018-12-05T09:13:54.372Z,5.90
2018-12-05T09:16:21.168Z,5.99
2018-12-05T09:18:47.968Z,6.04
2018-12-05T09:21:14.746Z,6.22
2018-12-05T09:23:41.501Z,6.42
2018-12-05T09:26:08.281Z,6.50
2018-12-05T09:28:35.049Z,6.26
2018-12-05T09:31:01.833Z,6.06
2018-12-05T09:33:28.599Z,6.10
2018-12-05T09:35:55.383Z,6.15
2018-12-05T09:38:22.186Z,6.00
2018-12-05T09:40:48.938Z,6.01
2018-12-05T09:43:15.737Z,6.16
2018-12-05T09:45:42.560Z,6.06
2018-12-05T09:48:09.351Z,6.12
2018-12-05T09:50:36.126Z,6.13
2018-12-05T09:53:02.884Z,6.59
2018-12-05T09:55:29.652Z,6.68
2018-12-05T09:57:56.445Z,6.70
2018-12-05T10:00:23.221Z,6.95
2018-12-05T10:02:50.033Z,7.28
2018-12-05T10:05:16.809Z,7.04
2018-12-05T10:07:43.581Z,7.12
2018-12-05T10:10:10.358Z,7.09
2018-12-05T10:12:37.140Z,7.56
2018-12-05T10:15:04.992Z,7.56
2018-12-05T10:17:31.766Z,7.65
2018-12-05T10:19:58.609Z,7.57
2018-12-05T10:22:25.385Z,7.48
2018-12-05T10:24:52.144Z,7.47
2018-12-05T10:27:18.929Z,7.50
2018-12-05T10:29:45.698Z,7.57
2018-12-05T10:32:12.491Z,7.49
2018-12-05T10:34:39.249Z,7.50
2018-12-05T10:37:06.190Z,7.39
2018-12-05T10:39:32.961Z,7.37
2018-12-05T10:41:59.759Z,7.38
2018-12-05T10:44:26.517Z,7.07
2018-12-05T10:46:53.296Z,7.30
2018-12-05T10:49:20.054Z,7.31
2018-12-05T10:51:46.854Z,7.43
2018-12-05T10:54:13.604Z,7.28
2018-12-05T10:56:40.388Z,7.46
2018-12-05T10:59:07.144Z,7.45
2018-12-05T11:01:39.612Z,7.70
2018-12-05T11:04:12.101Z,7.80
2018-12-05T11:06:58.531Z,7.81
2018-12-05T11:09:31.110Z,8.13
2018-12-05T11:12:03.719Z,7.78
2018-12-05T11:14:36.285Z,7.45
2018-12-05T11:17:08.926Z,7.52
2018-12-05T11:19:41.473Z,7.48
2018-12-05T11:22:27.870Z,7.61
2018-12-05T11:25:02.122Z,7.59
2018-12-05T11:27:28.979Z,7.48
2018-12-05T11:29:55.744Z,7.27
2018-12-05T11:32:22.577Z,7.42
2018-12-05T11:34:49.384Z,7.45
2018-12-05T11:37:16.163Z,7.43
2018-12-05T11:39:42.920Z,7.52
2018-12-05T11:42:09.693Z,7.49
2018-12-05T11:44:36.472Z,7.47
2018-12-05T11:47:03.262Z,7.52
2018-12-05T11:49:30.132Z,7.59
2018-12-05T11:51:56.941Z,7.74
2018-12-05T11:54:23.721Z,7.62
2018-12-05T11:56:50.608Z,7.67
2018-12-05T11:59:17.373Z,7.84
2018-12-05T12:01:44.214Z,7.91
2018-12-05T12:04:11.013Z,7.92
2018-12-05T12:06:38.840Z,7.93
2018-12-05T12:09:08.020Z,7.92
2018-12-05T12:11:34.916Z,7.90
2018-12-05T12:14:01.809Z,7.77
2018-12-05T12:16:28.676Z,7.94
2018-12-05T12:18:55.454Z,7.97
2018-12-05T12:21:22.291Z,7.86
2018-12-05T12:23:49.065Z,8.05
2018-12-05T12:26:15.841Z,8.42
2018-12-05T12:28:42.645Z,8.25
2018-12-05T12:31:09.421Z,8.38
2018-12-05T12:33:36.421Z,8.30
2018-12-05T12:36:03.177Z,8.50
2018-12-05T12:38:29.960Z,8.31
2018-12-05T12:40:56.817Z,8.36
2018-12-05T12:43:23.801Z,8.32
2018-12-05T12:45:50.560Z,8.20
2018-12-05T12:48:17.341Z,8.27
2018-12-05T12:50:44.260Z,8.28
2018-12-05T12:53:11.023Z,8.22
2018-12-05T12:55:37.853Z,8.29
2018-12-05T12:58:04.673Z,8.52
2018-12-05T13:00:31.430Z,8.48
2018-12-05T13:02:58.233Z,8.47
2018-12-05T13:05:25.009Z,8.50
2018-12-05T13:07:51.853Z,8.76
2018-12-05T13:10:18.657Z,8.79
2018-12-05T13:12:45.581Z,8.78
2018-12-05T13:15:12.401Z,8.88
2018-12-05T13:17:39.201Z,9.06
2018-12-05T13:20:06.676Z,9.26
2018-12-05T13:22:33.460Z,9.12
2018-12-05T13:25:00.394Z,9.14
2018-12-05T13:27:27.171Z,9.35
2018-12-05T13:29:53.961Z,9.14
2018-12-05T13:32:20.736Z,9.07
2018-12-05T13:34:47.524Z,9.01
2018-12-05T13:37:14.373Z,8.83
2018-12-05T13:39:41.172Z,8.71
2018-12-05T13:42:07.941Z,8.59
2018-12-05T13:44:34.727Z,8.68
2018-12-05T13:47:01.669Z,8.69
2018-12-05T13:49:28.783Z,8.55
2018-12-05T13:51:55.254Z,8.60
2018-12-05T13:54:22.082Z,8.63
2018-12-05T13:56:48.841Z,8.73
2018-12-05T13:59:15.625Z,8.80
2018-12-05T14:01:42.409Z,8.65
2018-12-05T14:04:09.205Z,8.63
2018-12-05T14:06:35.973Z,9.04
2018-12-05T14:09:04.214Z,8.78
2018-12-05T14:11:30.982Z,9.37
2018-12-05T14:13:57.756Z,8.91
2018-12-05T14:16:24.509Z,9.06
2018-12-05T14:18:51.292Z,9.07
2018-12-05T14:21:18.071Z,9.07
2018-12-05T14:23:44.844Z,9.00
2018-12-05T14:26:11.660Z,9.40
2018-12-05T14:28:38.440Z,9.51
2018-12-05T14:31:05.202Z,9.10
2018-12-05T14:33:31.970Z,9.01
2018-12-05T14:35:58.758Z,8.86
2018-12-05T14:38:25.504Z,9.30
2018-12-05T14:40:52.442Z,9.01
2018-12-05T14:43:19.214Z,8.90
2018-12-05T14:45:46.081Z,8.88
2018-12-05T14:48:13.225Z,8.82
2018-12-05T14:50:40.129Z,9.15
2018-12-05T14:53:06.918Z,9.12
2018-12-05T14:55:33.708Z,8.86
2018-12-05T14:58:00.513Z,9.11
2018-12-05T15:00:27.292Z,8.70
2018-12-05T15:02:54.061Z,8.54
2018-12-05T15:05:20.849Z,8.46
2018-12-05T15:07:47.654Z,8.26
2018-12-05T15:10:14.527Z,8.24
2018-12-05T15:12:42.122Z,8.11
2018-12-05T15:15:08.897Z,8.14
2018-12-05T15:17:35.669Z,8.10
2018-12-05T15:20:02.531Z,8.09
2018-12-05T15:22:29.354Z,8.07
2018-12-05T15:24:56.181Z,7.96
2018-12-05T15:27:23.000Z,7.97
2018-12-05T15:29:49.789Z,7.89
2018-12-05T15:32:16.617Z,7.82
2018-12-05T15:34:43.448Z,7.79
2018-12-05T15:37:10.229Z,7.70
2018-12-05T15:39:37.137Z,7.55
2018-12-05T15:42:03.976Z,7.63
2018-12-05T15:44:30.765Z,7.60
2018-12-05T15:46:57.549Z,7.60
2018-12-05T15:49:24.377Z,7.64
2018-12-05T15:51:51.189Z,7.57
2018-12-05T15:54:17.981Z,7.57
2018-12-05T15:56:44.812Z,7.45
2018-12-05T15:59:11.633Z,7.45
2018-12-05T16:01:38.408Z,7.33
2018-12-05T16:04:05.219Z,7.30
2018-12-05T16:06:32.001Z,7.25
2018-12-05T16:08:58.810Z,7.23
2018-12-05T16:11:25.613Z,7.22
2018-12-05T16:13:52.713Z,7.24
2018-12-05T16:16:19.493Z,7.25
2018-12-05T16:18:46.302Z,7.17
2018-12-05T16:21:13.081Z,7.11
2018-12-05T16:23:39.844Z,7.00
2018-12-05T16:26:10.637Z,7.02
2018-12-05T16:28:33.449Z,6.93
2018-12-05T16:31:00.233Z,6.90
2018-12-05T16:33:27.001Z,7.10
2018-12-05T16:35:53.777Z,6.98
2018-12-05T16:38:20.552Z,6.98
2018-12-05T16:40:47.328Z,6.85
2018-12-05T16:43:14.092Z,6.87
2018-12-05T16:45:40.877Z,6.78
2018-12-05T16:48:07.671Z,6.71
2018-12-05T16:50:34.457Z,6.75
2018-12-05T16:53:01.253Z,6.79
2018-12-05T16:55:28.044Z,6.90
2018-12-05T16:57:54.827Z,6.97
2018-12-05T17:00:21.616Z,7.04
2018-12-05T17:02:48.389Z,6.97
2018-12-05T17:05:15.161Z,6.85
2018-12-05T17:07:42.057Z,6.83
2018-12-05T17:10:08.827Z,6.88
2018-12-05T17:12:35.617Z,7.01
2018-12-05T17:15:02.384Z,7.05
2018-12-05T17:17:29.176Z,7.07
2018-12-05T17:19:56.002Z,7.10
2018-12-05T17:22:22.797Z,7.12
2018-12-05T17:24:49.584Z,7.18
2018-12-05T17:27:17.770Z,7.14
2018-12-05T17:29:43.157Z,7.11
2018-12-05T17:32:09.977Z,6.93
2018-12-05T17:34:36.746Z,6.77
2018-12-05T17:37:03.537Z,6.76
2018-12-05T17:39:30.293Z,6.71
2018-12-05T17:41:57.208Z,6.64
2018-12-05T17:44:23.977Z,6.57
2018-12-05T17:46:50.761Z,6.48
2018-12-05T17:49:17.536Z,6.39
2018-12-05T17:51:44.335Z,6.54
2018-12-05T17:54:14.731Z,6.59
2018-12-05T17:56:37.889Z,6.52
2018-12-05T17:59:04.681Z,6.48
2018-12-05T18:01:31.469Z,6.53
2018-12-05T18:03:58.242Z,6.46
2018-12-05T18:06:25.058Z,6.49
2018-12-05T18:08:51.822Z,6.22
2018-12-05T18:11:18.689Z,6.16
2018-12-05T18:13:45.468Z,6.27
2018-12-05T18:16:12.261Z,6.41
2018-12-05T18:18:39.048Z,6.44
2018-12-05T18:21:05.822Z,6.58
2018-12-05T18:23:32.697Z,6.25
2018-12-05T18:25:59.464Z,6.21
2018-12-05T18:28:26.289Z,6.41
2018-12-05T18:30:53.093Z,6.44
2018-12-05T18:33:19.889Z,6.40
2018-12-05T18:35:46.669Z,6.47
2018-12-05T18:38:13.445Z,6.54
2018-12-05T18:40:40.245Z,6.66
2018-12-05T18:43:07.013Z,6.70
2018-12-05T18:45:33.806Z,6.65
2018-12-05T18:48:00.588Z,6.57
2018-12-05T18:50:27.388Z,6.41
2018-12-05T18:52:54.166Z,6.38
2018-12-05T18:55:20.961Z,6.37
2018-12-05T18:57:47.749Z,6.42
2018-12-05T19:00:14.654Z,6.51
2018-12-05T19:02:41.420Z,6.49
2018-12-05T19:05:08.360Z,6.43
2018-12-05T19:07:35.171Z,6.51
2018-12-05T19:10:02.189Z,6.58
2018-12-05T19:12:29.180Z,6.58
2018-12-05T19:14:56.101Z,6.46
2018-12-05T19:17:22.931Z,6.47
2018-12-05T19:19:49.752Z,6.57
2018-12-05T19:22:16.602Z,6.66
2018-12-05T19:24:43.694Z,6.73
2018-12-05T19:27:10.474Z,6.72
2018-12-05T19:29:37.253Z,6.67
2018-12-05T19:32:04.059Z,6.81
2018-12-05T19:34:31.262Z,6.72
2018-12-05T19:36:58.113Z,6.63
2018-12-05T19:39:24.880Z,6.59
2018-12-05T19:41:51.665Z,6.53
2018-12-05T19:44:18.497Z,6.23
2018-12-05T19:46:45.348Z,6.13
2018-12-05T19:49:12.120Z,6.02
2018-12-05T19:51:38.923Z,5.93
2018-12-05T19:54:05.721Z,5.89
2018-12-05T19:56:32.501Z,6.01
2018-12-05T19:58:59.261Z,6.01
2018-12-05T20:01:26.045Z,6.06
2018-12-05T20:03:52.813Z,6.10
2018-12-05T20:06:19.685Z,6.29
2018-12-05T20:08:46.453Z,6.78
2018-12-05T20:11:13.252Z,6.81
2018-12-05T20:13:40.023Z,6.72
2018-12-05T20:16:06.797Z,7.20
2018-12-05T20:18:33.565Z,6.99
2018-12-05T20:21:00.372Z,6.85
2018-12-05T20:23:27.253Z,7.47
2018-12-05T20:25:54.013Z,7.18
2018-12-05T20:28:20.808Z,7.19
2018-12-05T20:30:47.589Z,7.18
2018-12-05T20:33:14.424Z,7.13
2018-12-05T20:35:41.200Z,7.12
2018-12-05T20:38:07.984Z,7.08
2018-12-05T20:40:34.744Z,7.06
2018-12-05T20:43:01.541Z,7.03
2018-12-05T20:45:28.300Z,7.10
2018-12-05T20:47:55.081Z,6.99
2018-12-05T20:50:21.844Z,7.05
2018-12-05T20:52:48.632Z,7.00
2018-12-05T20:55:15.405Z,6.89
2018-12-05T20:57:42.208Z,7.57
2018-12-05T21:00:09.053Z,7.68
2018-12-05T21:02:35.856Z,7.09
2018-12-05T21:05:02.646Z,7.05
2018-12-05T21:07:29.420Z,7.07
2018-12-05T21:09:56.188Z,7.24
2018-12-05T21:12:22.973Z,7.18
2018-12-05T21:14:49.728Z,7.12
2018-12-05T21:17:16.561Z,7.02
2018-12-05T21:19:43.329Z,7.29
2018-12-05T21:22:10.125Z,7.70
2018-12-05T21:24:36.885Z,7.14
2018-12-05T21:27:03.681Z,7.01
2018-12-05T21:29:30.446Z,7.00
2018-12-05T21:31:57.234Z,7.04
2018-12-05T21:34:24.012Z,7.06
2018-12-05T21:36:50.813Z,7.33
2018-12-05T21:39:17.580Z,7.09
2018-12-05T21:41:44.465Z,7.25
2018-12-05T21:44:11.230Z,7.09
2018-12-05T21:46:37.984Z,7.15
2018-12-05T21:49:04.777Z,7.33
2018-12-05T21:51:31.533Z,7.33
2018-12-05T21:53:58.321Z,7.06
2018-12-05T21:56:25.093Z,7.13
2018-12-05T21:58:51.883Z,7.18
2018-12-05T22:01:18.648Z,7.22
2018-12-05T22:03:45.432Z,7.21
2018-12-05T22:06:12.200Z,7.22
2018-12-05T22:08:38.973Z,7.06
2018-12-05T22:11:05.736Z,6.94
2018-12-05T22:13:32.532Z,7.18
2018-12-05T22:15:59.326Z,7.20
2018-12-05T22:18:26.105Z,7.06
2018-12-05T22:20:52.876Z,7.18
2018-12-05T22:23:19.657Z,7.09
2018-12-05T22:25:46.433Z,7.09
2018-12-05T22:28:13.223Z,7.62
2018-12-05T22:30:39.981Z,7.34
2018-12-05T22:33:06.761Z,7.25
2018-12-05T22:35:33.524Z,7.17
2018-12-05T22:38:00.310Z,7.07
2018-12-05T22:40:27.093Z,7.14
2018-12-05T22:42:53.867Z,7.72
2018-12-05T22:45:20.628Z,7.23
2018-12-05T22:47:47.409Z,7.18
2018-12-05T22:50:14.193Z,7.34
2018-12-05T22:52:43.789Z,7.25
2018-12-05T22:55:10.649Z,7.25
2018-12-05T22:57:37.437Z,6.98
2018-12-05T23:00:06.006Z,7.17
2018-12-05T23:02:32.785Z,7.08
2018-12-05T23:04:59.548Z,6.89
2018-12-05T23:07:26.309Z,6.91
2018-12-05T23:09:53.084Z,6.95
2018-12-05T23:12:19.849Z,6.91
2018-12-05T23:14:46.632Z,6.84
2018-12-05T23:17:13.392Z,6.76
2018-12-05T23:19:40.170Z,6.86
2018-12-05T23:22:06.933Z,7.05
2018-12-05T23:24:33.713Z,6.97
2018-12-05T23:27:00.477Z,6.98
2018-12-05T23:29:27.265Z,7.15
2018-12-05T23:31:54.056Z,7.18
2018-12-05T23:34:20.950Z,7.17
2018-12-05T23:36:47.697Z,7.20
2018-12-05T23:39:14.476Z,7.21
2018-12-05T23:41:41.245Z,7.14
2018-12-05T23:44:08.024Z,7.10
2018-12-05T23:46:34.788Z,7.00
2018-12-05T23:49:01.585Z,7.49
2018-12-05T23:51:28.345Z,7.25
2018-12-05T23:53:55.136Z,6.93
2018-12-05T23:56:21.910Z,7.60
2018-12-05T23:58:48.694Z,7.26
